sensor_id;sensor_type;location;lat;lon;timestamp;P1;durP1;ratioP1;P2;durP2;ratioP2
18499;SDS011;9379;52.134;11.576;2023-03-01T00:01:38;11.15;;;8.23;;
18499;SDS011;9379;52.134;11.576;2023-03-01T00:04:05;9.40;;;8.43;;
18499;SDS011;9379;52.134;11.576;2023-03-01T00:06:32;16.23;;;10.43;;
18499;SDS011;9379;52.134;11.576;2023-03-01T00:08:59;12.13;;;9.55;;
18499;SDS011;9379;52.134;11.576;2023-03-01T00:11:26;11.82;;;9.45;;
18499;SDS011;9379;52.134;11.576;2023-03-01T00:13:54;9.45;;;8.45;;
18499;SDS011;9379;52.134;11.576;2023-03-01T00:16:24;14.30;;;10.00;;
18499;SDS011;9379;52.134;11.576;2023-03-01T00:18:53;9.60;;;8.60;;
18499;SDS011;9379;52.134;11.576;2023-03-01T00:21:20;11.70;;;8.68;;
18499;SDS011;9379;52.134;11.576;2023-03-01T00:23:47;10.55;;;8.50;;
18499;SDS011;9379;52.134;11.576;2023-03-01T00:26:15;12.55;;;9.77;;
18499;SDS011;9379;52.134;11.576;2023-03-01T00:28:43;9.40;;;8.25;;
18499;SDS011;9379;52.134;11.576;2023-03-01T00:31:11;18.80;;;10.38;;
18499;SDS011;9379;52.134;11.576;2023-03-01T00:33:41;9.65;;;8.55;;
18499;SDS011;9379;52.134;11.576;2023-03-01T00:36:10;9.80;;;8.20;;
18499;SDS011;9379;52.134;11.576;2023-03-01T00:38:39;12.00;;;9.35;;
18499;SDS011;9379;52.134;11.576;2023-03-01T00:41:08;12.25;;;9.52;;
18499;SDS011;9379;52.134;11.576;2023-03-01T00:43:36;13.50;;;10.25;;
18499;SDS011;9379;52.134;11.576;2023-03-01T00:46:03;10.52;;;8.18;;
18499;SDS011;9379;52.134;11.576;2023-03-01T00:48:31;12.27;;;9.57;;
18499;SDS011;9379;52.134;11.576;2023-03-01T00:51:04;11.35;;;8.90;;
18499;SDS011;9379;52.134;11.576;2023-03-01T00:53:32;12.07;;;8.02;;
18499;SDS011;9379;52.134;11.576;2023-03-01T00:55:59;10.38;;;7.18;;
18499;SDS011;9379;52.134;11.576;2023-03-01T00:58:26;19.67;;;8.82;;
18499;SDS011;9379;52.134;11.576;2023-03-01T01:00:53;11.60;;;9.45;;
18499;SDS011;9379;52.134;11.576;2023-03-01T01:03:20;12.25;;;8.98;;
18499;SDS011;9379;52.134;11.576;2023-03-01T01:05:49;11.63;;;7.88;;
18499;SDS011;9379;52.134;11.576;2023-03-01T01:08:18;9.45;;;7.70;;
18499;SDS011;9379;52.134;11.576;2023-03-01T01:10:45;7.53;;;6.53;;
18499;SDS011;9379;52.134;11.576;2023-03-01T01:13:12;9.88;;;5.80;;
18499;SDS011;9379;52.134;11.576;2023-03-01T01:15:39;7.10;;;6.50;;
18499;SDS011;9379;52.134;11.576;2023-03-01T01:18:06;9.23;;;6.70;;
18499;SDS011;9379;52.134;11.576;2023-03-01T01:20:35;4.88;;;4.43;;
18499;SDS011;9379;52.134;11.576;2023-03-01T01:23:04;6.82;;;6.22;;
18499;SDS011;9379;52.134;11.576;2023-03-01T01:25:35;6.55;;;5.32;;
18499;SDS011;9379;52.134;11.576;2023-03-01T01:28:02;5.00;;;4.50;;
18499;SDS011;9379;52.134;11.576;2023-03-01T01:30:29;5.47;;;4.90;;
18499;SDS011;9379;52.134;11.576;2023-03-01T01:32:56;5.18;;;4.78;;
18499;SDS011;9379;52.134;11.576;2023-03-01T01:35:22;5.72;;;5.10;;
18499;SDS011;9379;52.134;11.576;2023-03-01T01:37:49;7.22;;;5.38;;
18499;SDS011;9379;52.134;11.576;2023-03-01T01:40:16;11.93;;;5.80;;
18499;SDS011;9379;52.134;11.576;2023-03-01T01:42:44;7.70;;;5.97;;
18499;SDS011;9379;52.134;11.576;2023-03-01T01:45:28;6.47;;;5.05;;
18499;SDS011;9379;52.134;11.576;2023-03-01T01:47:58;5.43;;;5.03;;
18499;SDS011;9379;52.134;11.576;2023-03-01T01:50:29;6.90;;;5.53;;
18499;SDS011;9379;52.134;11.576;2023-03-01T01:53:04;8.55;;;5.22;;
18499;SDS011;9379;52.134;11.576;2023-03-01T01:55:33;5.40;;;4.90;;
18499;SDS011;9379;52.134;11.576;2023-03-01T01:58:05;6.90;;;5.38;;
18499;SDS011;9379;52.134;11.576;2023-03-01T02:00:34;8.65;;;5.20;;
18499;SDS011;9379;52.134;11.576;2023-03-01T02:03:01;7.18;;;5.68;;
18499;SDS011;9379;52.134;11.576;2023-03-01T02:05:33;5.63;;;5.00;;
18499;SDS011;9379;52.134;11.576;2023-03-01T02:08:04;5.85;;;5.30;;
18499;SDS011;9379;52.134;11.576;2023-03-01T02:10:32;11.93;;;6.95;;
18499;SDS011;9379;52.134;11.576;2023-03-01T02:13:00;7.97;;;5.57;;
18499;SDS011;9379;52.134;11.576;2023-03-01T02:15:32;5.32;;;4.82;;
18499;SDS011;9379;52.134;11.576;2023-03-01T02:18:00;5.80;;;4.53;;
18499;SDS011;9379;52.134;11.576;2023-03-01T02:20:30;8.45;;;5.32;;
18499;SDS011;9379;52.134;11.576;2023-03-01T02:23:01;5.65;;;5.10;;
18499;SDS011;9379;52.134;11.576;2023-03-01T02:25:33;5.40;;;4.82;;
18499;SDS011;9379;52.134;11.576;2023-03-01T02:28:08;5.20;;;4.20;;
18499;SDS011;9379;52.134;11.576;2023-03-01T02:30:39;5.47;;;4.97;;
18499;SDS011;9379;52.134;11.576;2023-03-01T02:33:26;5.05;;;4.57;;
18499;SDS011;9379;52.134;11.576;2023-03-01T02:35:52;8.77;;;6.63;;
18499;SDS011;9379;52.134;11.576;2023-03-01T02:38:20;7.68;;;5.30;;
18499;SDS011;9379;52.134;11.576;2023-03-01T02:40:49;9.68;;;6.45;;
18499;SDS011;9379;52.134;11.576;2023-03-01T02:43:17;6.78;;;4.30;;
18499;SDS011;9379;52.134;11.576;2023-03-01T02:45:49;5.20;;;4.65;;
18499;SDS011;9379;52.134;11.576;2023-03-01T02:48:17;5.45;;;4.55;;
18499;SDS011;9379;52.134;11.576;2023-03-01T02:50:47;9.52;;;5.43;;
18499;SDS011;9379;52.134;11.576;2023-03-01T02:53:22;5.35;;;4.82;;
18499;SDS011;9379;52.134;11.576;2023-03-01T02:55:57;5.78;;;4.43;;
18499;SDS011;9379;52.134;11.576;2023-03-01T02:58:25;9.77;;;5.10;;
18499;SDS011;9379;52.134;11.576;2023-03-01T03:00:53;6.78;;;6.07;;
18499;SDS011;9379;52.134;11.576;2023-03-01T03:03:20;7.40;;;6.65;;
18499;SDS011;9379;52.134;11.576;2023-03-01T03:05:47;7.65;;;5.78;;
18499;SDS011;9379;52.134;11.576;2023-03-01T03:08:15;7.40;;;5.25;;
18499;SDS011;9379;52.134;11.576;2023-03-01T03:10:48;6.78;;;5.97;;
18499;SDS011;9379;52.134;11.576;2023-03-01T03:13:15;8.93;;;5.13;;
18499;SDS011;9379;52.134;11.576;2023-03-01T03:15:42;6.05;;;4.45;;
18499;SDS011;9379;52.134;11.576;2023-03-01T03:18:11;5.45;;;4.93;;
18499;SDS011;9379;52.134;11.576;2023-03-01T03:20:39;4.95;;;4.55;;
18499;SDS011;9379;52.134;11.576;2023-03-01T03:23:08;6.93;;;5.90;;
18499;SDS011;9379;52.134;11.576;2023-03-01T03:25:35;5.90;;;5.35;;
18499;SDS011;9379;52.134;11.576;2023-03-01T03:28:03;7.07;;;5.18;;
18499;SDS011;9379;52.134;11.576;2023-03-01T03:30:35;10.30;;;5.15;;
18499;SDS011;9379;52.134;11.576;2023-03-01T03:33:04;6.05;;;5.38;;
18499;SDS011;9379;52.134;11.576;2023-03-01T03:35:34;6.90;;;5.20;;
18499;SDS011;9379;52.134;11.576;2023-03-01T03:38:06;4.88;;;4.15;;
18499;SDS011;9379;52.134;11.576;2023-03-01T03:40:41;5.75;;;5.10;;
18499;SDS011;9379;52.134;11.576;2023-03-01T03:43:10;7.47;;;6.05;;
18499;SDS011;9379;52.134;11.576;2023-03-01T03:45:38;4.55;;;3.90;;
18499;SDS011;9379;52.134;11.576;2023-03-01T03:48:06;6.90;;;6.30;;
18499;SDS011;9379;52.134;11.576;2023-03-01T03:50:35;6.45;;;5.88;;
18499;SDS011;9379;52.134;11.576;2023-03-01T03:53:03;6.30;;;5.80;;
18499;SDS011;9379;52.134;11.576;2023-03-01T03:55:33;5.57;;;4.68;;
18499;SDS011;9379;52.134;11.576;2023-03-01T03:58:00;7.00;;;5.70;;
18499;SDS011;9379;52.134;11.576;2023-03-01T04:00:32;7.82;;;5.78;;
18499;SDS011;9379;52.134;11.576;2023-03-01T04:03:00;6.20;;;5.25;;
18499;SDS011;9379;52.134;11.576;2023-03-01T04:05:27;5.53;;;4.78;;
18499;SDS011;9379;52.134;11.576;2023-03-01T04:07:56;8.65;;;5.38;;
18499;SDS011;9379;52.134;11.576;2023-03-01T04:10:32;6.28;;;4.55;;
18499;SDS011;9379;52.134;11.576;2023-03-01T04:13:00;6.63;;;4.65;;
18499;SDS011;9379;52.134;11.576;2023-03-01T04:15:27;6.35;;;5.43;;
18499;SDS011;9379;52.134;11.576;2023-03-01T04:17:54;6.25;;;5.68;;
18499;SDS011;9379;52.134;11.576;2023-03-01T04:20:22;10.25;;;5.88;;
18499;SDS011;9379;52.134;11.576;2023-03-01T04:22:51;9.38;;;7.15;;
18499;SDS011;9379;52.134;11.576;2023-03-01T04:25:20;8.10;;;6.80;;
18499;SDS011;9379;52.134;11.576;2023-03-01T04:27:46;12.50;;;5.80;;
18499;SDS011;9379;52.134;11.576;2023-03-01T04:30:13;7.50;;;5.17;;
18499;SDS011;9379;52.134;11.576;2023-03-01T04:32:41;8.43;;;6.93;;
18499;SDS011;9379;52.134;11.576;2023-03-01T04:35:08;5.95;;;5.07;;
18499;SDS011;9379;52.134;11.576;2023-03-01T04:37:37;6.93;;;5.00;;
18499;SDS011;9379;52.134;11.576;2023-03-01T04:40:07;6.55;;;5.32;;
18499;SDS011;9379;52.134;11.576;2023-03-01T04:42:42;5.88;;;5.20;;
18499;SDS011;9379;52.134;11.576;2023-03-01T04:45:09;6.50;;;5.40;;
18499;SDS011;9379;52.134;11.576;2023-03-01T04:47:38;10.20;;;6.78;;
18499;SDS011;9379;52.134;11.576;2023-03-01T04:50:06;7.53;;;6.15;;
18499;SDS011;9379;52.134;11.576;2023-03-01T04:52:34;9.57;;;5.90;;
18499;SDS011;9379;52.134;11.576;2023-03-01T04:55:00;7.87;;;5.70;;
18499;SDS011;9379;52.134;11.576;2023-03-01T04:57:28;7.97;;;6.80;;
18499;SDS011;9379;52.134;11.576;2023-03-01T04:59:56;11.45;;;8.23;;
18499;SDS011;9379;52.134;11.576;2023-03-01T05:02:23;10.43;;;8.00;;
18499;SDS011;9379;52.134;11.576;2023-03-01T05:04:50;12.13;;;7.30;;
18499;SDS011;9379;52.134;11.576;2023-03-01T05:07:17;9.82;;;6.30;;
18499;SDS011;9379;52.134;11.576;2023-03-01T05:09:45;7.07;;;5.50;;
18499;SDS011;9379;52.134;11.576;2023-03-01T05:12:12;8.23;;;5.82;;
18499;SDS011;9379;52.134;11.576;2023-03-01T05:14:39;8.38;;;6.22;;
18499;SDS011;9379;52.134;11.576;2023-03-01T05:17:07;9.45;;;6.03;;
18499;SDS011;9379;52.134;11.576;2023-03-01T05:19:34;17.20;;;6.47;;
18499;SDS011;9379;52.134;11.576;2023-03-01T05:22:01;7.65;;;6.82;;
18499;SDS011;9379;52.134;11.576;2023-03-01T05:24:29;10.35;;;4.85;;
18499;SDS011;9379;52.134;11.576;2023-03-01T05:27:00;5.05;;;4.60;;
18499;SDS011;9379;52.134;11.576;2023-03-01T05:29:37;5.07;;;4.57;;
18499;SDS011;9379;52.134;11.576;2023-03-01T05:32:04;10.65;;;5.93;;
18499;SDS011;9379;52.134;11.576;2023-03-01T05:34:33;10.87;;;5.83;;
18499;SDS011;9379;52.134;11.576;2023-03-01T05:37:01;8.02;;;6.22;;
18499;SDS011;9379;52.134;11.576;2023-03-01T05:39:30;4.68;;;4.25;;
18499;SDS011;9379;52.134;11.576;2023-03-01T05:41:58;7.05;;;4.75;;
18499;SDS011;9379;52.134;11.576;2023-03-01T05:44:26;6.50;;;5.25;;
18499;SDS011;9379;52.134;11.576;2023-03-01T05:46:54;10.60;;;6.53;;
18499;SDS011;9379;52.134;11.576;2023-03-01T05:49:21;10.02;;;6.18;;
18499;SDS011;9379;52.134;11.576;2023-03-01T05:51:51;7.28;;;5.97;;
18499;SDS011;9379;52.134;11.576;2023-03-01T05:54:19;6.03;;;5.38;;
18499;SDS011;9379;52.134;11.576;2023-03-01T05:56:46;6.33;;;5.77;;
18499;SDS011;9379;52.134;11.576;2023-03-01T05:59:13;7.88;;;6.45;;
18499;SDS011;9379;52.134;11.576;2023-03-01T06:01:41;10.57;;;5.25;;
18499;SDS011;9379;52.134;11.576;2023-03-01T06:04:08;8.00;;;6.00;;
18499;SDS011;9379;52.134;11.576;2023-03-01T06:06:36;9.70;;;6.50;;
18499;SDS011;9379;52.134;11.576;2023-03-01T06:09:05;9.35;;;7.10;;
18499;SDS011;9379;52.134;11.576;2023-03-01T06:11:35;12.98;;;10.55;;
18499;SDS011;9379;52.134;11.576;2023-03-01T06:14:02;12.77;;;9.10;;
18499;SDS011;9379;52.134;11.576;2023-03-01T06:16:31;16.27;;;12.98;;
18499;SDS011;9379;52.134;11.576;2023-03-01T06:18:58;15.00;;;11.57;;
18499;SDS011;9379;52.134;11.576;2023-03-01T06:21:25;15.57;;;12.00;;
18499;SDS011;9379;52.134;11.576;2023-03-01T06:23:51;17.53;;;11.70;;
18499;SDS011;9379;52.134;11.576;2023-03-01T06:26:22;15.63;;;12.23;;
18499;SDS011;9379;52.134;11.576;2023-03-01T06:28:49;15.52;;;9.85;;
18499;SDS011;9379;52.134;11.576;2023-03-01T06:31:16;10.20;;;8.90;;
18499;SDS011;9379;52.134;11.576;2023-03-01T06:33:42;11.50;;;7.40;;
18499;SDS011;9379;52.134;11.576;2023-03-01T06:36:10;11.93;;;8.20;;
18499;SDS011;9379;52.134;11.576;2023-03-01T06:38:36;8.90;;;7.38;;
18499;SDS011;9379;52.134;11.576;2023-03-01T06:41:05;7.60;;;6.82;;
18499;SDS011;9379;52.134;11.576;2023-03-01T06:43:34;8.70;;;5.40;;
18499;SDS011;9379;52.134;11.576;2023-03-01T06:46:08;6.93;;;6.32;;
18499;SDS011;9379;52.134;11.576;2023-03-01T06:48:35;11.90;;;6.15;;
18499;SDS011;9379;52.134;11.576;2023-03-01T06:51:01;5.35;;;4.85;;
18499;SDS011;9379;52.134;11.576;2023-03-01T06:53:29;8.73;;;4.90;;
18499;SDS011;9379;52.134;11.576;2023-03-01T06:55:55;7.13;;;5.70;;
18499;SDS011;9379;52.134;11.576;2023-03-01T06:58:24;8.70;;;7.38;;
18499;SDS011;9379;52.134;11.576;2023-03-01T07:00:52;11.55;;;7.47;;
18499;SDS011;9379;52.134;11.576;2023-03-01T07:06:40;13.68;;;8.82;;
18499;SDS011;9379;52.134;11.576;2023-03-01T07:09:07;12.65;;;8.45;;
18499;SDS011;9379;52.134;11.576;2023-03-01T07:11:34;10.70;;;7.67;;
18499;SDS011;9379;52.134;11.576;2023-03-01T07:14:01;10.20;;;8.15;;
18499;SDS011;9379;52.134;11.576;2023-03-01T07:16:29;8.27;;;7.40;;
18499;SDS011;9379;52.134;11.576;2023-03-01T07:18:56;13.40;;;8.02;;
18499;SDS011;9379;52.134;11.576;2023-03-01T07:21:25;11.35;;;7.85;;
18499;SDS011;9379;52.134;11.576;2023-03-01T07:23:52;7.95;;;6.88;;
18499;SDS011;9379;52.134;11.576;2023-03-01T07:26:19;9.95;;;6.15;;
18499;SDS011;9379;52.134;11.576;2023-03-01T07:28:45;8.63;;;6.72;;
18499;SDS011;9379;52.134;11.576;2023-03-01T07:31:12;10.98;;;7.13;;
18499;SDS011;9379;52.134;11.576;2023-03-01T07:33:42;10.95;;;7.85;;
18499;SDS011;9379;52.134;11.576;2023-03-01T07:36:09;20.17;;;10.93;;
18499;SDS011;9379;52.134;11.576;2023-03-01T07:38:36;13.63;;;9.55;;
18499;SDS011;9379;52.134;11.576;2023-03-01T07:41:03;19.35;;;12.85;;
18499;SDS011;9379;52.134;11.576;2023-03-01T07:43:30;15.73;;;9.55;;
18499;SDS011;9379;52.134;11.576;2023-03-01T07:45:58;11.98;;;8.15;;
18499;SDS011;9379;52.134;11.576;2023-03-01T07:48:26;8.40;;;6.40;;
18499;SDS011;9379;52.134;11.576;2023-03-01T07:50:59;8.02;;;5.88;;
18499;SDS011;9379;52.134;11.576;2023-03-01T07:53:25;7.28;;;5.60;;
18499;SDS011;9379;52.134;11.576;2023-03-01T07:55:59;4.70;;;4.22;;
18499;SDS011;9379;52.134;11.576;2023-03-01T07:58:27;5.65;;;5.07;;
18499;SDS011;9379;52.134;11.576;2023-03-01T08:00:54;7.00;;;5.07;;
18499;SDS011;9379;52.134;11.576;2023-03-01T08:03:20;6.53;;;5.28;;
18499;SDS011;9379;52.134;11.576;2023-03-01T08:05:47;12.70;;;6.70;;
18499;SDS011;9379;52.134;11.576;2023-03-01T08:08:15;5.38;;;4.95;;
18499;SDS011;9379;52.134;11.576;2023-03-01T08:10:42;6.25;;;5.63;;
18499;SDS011;9379;52.134;11.576;2023-03-01T08:13:09;10.63;;;5.70;;
18499;SDS011;9379;52.134;11.576;2023-03-01T08:15:36;6.35;;;5.70;;
18499;SDS011;9379;52.134;11.576;2023-03-01T08:18:02;6.80;;;6.07;;
18499;SDS011;9379;52.134;11.576;2023-03-01T08:20:29;11.10;;;7.50;;
18499;SDS011;9379;52.134;11.576;2023-03-01T08:22:57;7.72;;;6.45;;
18499;SDS011;9379;52.134;11.576;2023-03-01T08:25:25;6.65;;;5.72;;
18499;SDS011;9379;52.134;11.576;2023-03-01T08:27:52;7.80;;;5.43;;
18499;SDS011;9379;52.134;11.576;2023-03-01T08:30:19;4.72;;;4.30;;
18499;SDS011;9379;52.134;11.576;2023-03-01T08:32:46;7.03;;;6.00;;
18499;SDS011;9379;52.134;11.576;2023-03-01T08:35:12;5.90;;;5.30;;
18499;SDS011;9379;52.134;11.576;2023-03-01T08:37:41;7.72;;;6.03;;
18499;SDS011;9379;52.134;11.576;2023-03-01T08:40:09;6.07;;;5.47;;
18499;SDS011;9379;52.134;11.576;2023-03-01T08:42:40;7.30;;;5.55;;
18499;SDS011;9379;52.134;11.576;2023-03-01T08:45:08;5.65;;;5.07;;
18499;SDS011;9379;52.134;11.576;2023-03-01T08:47:36;5.80;;;5.30;;
18499;SDS011;9379;52.134;11.576;2023-03-01T08:50:03;14.30;;;6.57;;
18499;SDS011;9379;52.134;11.576;2023-03-01T08:52:31;5.90;;;5.30;;
18499;SDS011;9379;52.134;11.576;2023-03-01T08:54:59;7.68;;;5.85;;
18499;SDS011;9379;52.134;11.576;2023-03-01T08:57:27;7.75;;;5.53;;
18499;SDS011;9379;52.134;11.576;2023-03-01T08:59:55;8.50;;;6.53;;
18499;SDS011;9379;52.134;11.576;2023-03-01T09:02:22;9.45;;;5.32;;
18499;SDS011;9379;52.134;11.576;2023-03-01T09:04:48;8.95;;;5.10;;
18499;SDS011;9379;52.134;11.576;2023-03-01T09:07:15;5.18;;;4.75;;
18499;SDS011;9379;52.134;11.576;2023-03-01T09:09:42;6.72;;;6.10;;
18499;SDS011;9379;52.134;11.576;2023-03-01T09:12:09;6.63;;;4.90;;
18499;SDS011;9379;52.134;11.576;2023-03-01T09:14:35;7.75;;;6.45;;
18499;SDS011;9379;52.134;11.576;2023-03-01T09:17:05;13.35;;;7.25;;
18499;SDS011;9379;52.134;11.576;2023-03-01T09:19:31;6.13;;;5.50;;
18499;SDS011;9379;52.134;11.576;2023-03-01T09:21:58;5.88;;;5.20;;
18499;SDS011;9379;52.134;11.576;2023-03-01T09:24:25;9.77;;;5.93;;
18499;SDS011;9379;52.134;11.576;2023-03-01T09:26:55;7.45;;;6.13;;
18499;SDS011;9379;52.134;11.576;2023-03-01T09:29:22;12.25;;;7.20;;
18499;SDS011;9379;52.134;11.576;2023-03-01T09:31:50;8.95;;;7.25;;
18499;SDS011;9379;52.134;11.576;2023-03-01T09:34:21;10.00;;;6.97;;
18499;SDS011;9379;52.134;11.576;2023-03-01T09:36:49;7.30;;;6.13;;
18499;SDS011;9379;52.134;11.576;2023-03-01T09:39:16;9.07;;;6.20;;
18499;SDS011;9379;52.134;11.576;2023-03-01T09:41:46;5.70;;;4.82;;
18499;SDS011;9379;52.134;11.576;2023-03-01T09:44:19;5.63;;;4.93;;
18499;SDS011;9379;52.134;11.576;2023-03-01T09:46:56;7.07;;;4.78;;
18499;SDS011;9379;52.134;11.576;2023-03-01T09:49:25;5.72;;;4.80;;
18499;SDS011;9379;52.134;11.576;2023-03-01T09:51:57;4.53;;;3.78;;
18499;SDS011;9379;52.134;11.576;2023-03-01T09:54:27;7.70;;;4.97;;
18499;SDS011;9379;52.134;11.576;2023-03-01T10:07:57;8.70;;;4.93;;
18499;SDS011;9379;52.134;11.576;2023-03-01T10:10:51;9.20;;;5.55;;
18499;SDS011;9379;52.134;11.576;2023-03-01T10:13:21;4.28;;;3.88;;
18499;SDS011;9379;52.134;11.576;2023-03-01T10:15:53;4.57;;;4.18;;
18499;SDS011;9379;52.134;11.576;2023-03-01T10:18:23;6.93;;;6.22;;
18499;SDS011;9379;52.134;11.576;2023-03-01T10:20:53;9.38;;;5.18;;
18499;SDS011;9379;52.134;11.576;2023-03-01T10:23:23;7.97;;;5.32;;
18499;SDS011;9379;52.134;11.576;2023-03-01T10:25:56;8.20;;;5.30;;
18499;SDS011;9379;52.134;11.576;2023-03-01T10:28:36;6.18;;;5.22;;
18499;SDS011;9379;52.134;11.576;2023-03-01T10:31:13;7.20;;;5.00;;
18499;SDS011;9379;52.134;11.576;2023-03-01T10:33:44;7.32;;;5.93;;
18499;SDS011;9379;52.134;11.576;2023-03-01T10:36:13;8.55;;;6.15;;
18499;SDS011;9379;52.134;11.576;2023-03-01T10:38:50;5.30;;;4.70;;
18499;SDS011;9379;52.134;11.576;2023-03-01T10:41:19;10.52;;;6.47;;
18499;SDS011;9379;52.134;11.576;2023-03-01T10:43:49;7.45;;;6.13;;
18499;SDS011;9379;52.134;11.576;2023-03-01T10:46:24;6.70;;;5.22;;
18499;SDS011;9379;52.134;11.576;2023-03-01T10:49:05;7.10;;;5.75;;
18499;SDS011;9379;52.134;11.576;2023-03-01T10:51:33;7.18;;;6.32;;
18499;SDS011;9379;52.134;11.576;2023-03-01T10:54:02;6.55;;;5.22;;
18499;SDS011;9379;52.134;11.576;2023-03-01T10:56:30;4.95;;;4.45;;
18499;SDS011;9379;52.134;11.576;2023-03-01T10:59:19;7.80;;;5.97;;
18499;SDS011;9379;52.134;11.576;2023-03-01T11:02:00;7.43;;;5.10;;
18499;SDS011;9379;52.134;11.576;2023-03-01T11:04:30;6.43;;;4.97;;
18499;SDS011;9379;52.134;11.576;2023-03-01T11:06:58;4.97;;;3.90;;
18499;SDS011;9379;52.134;11.576;2023-03-01T11:09:32;4.78;;;4.20;;
18499;SDS011;9379;52.134;11.576;2023-03-01T11:12:03;6.90;;;5.38;;
18499;SDS011;9379;52.134;11.576;2023-03-01T11:14:45;7.85;;;5.78;;
18499;SDS011;9379;52.134;11.576;2023-03-01T11:17:15;4.95;;;4.20;;
18499;SDS011;9379;52.134;11.576;2023-03-01T11:19:59;5.18;;;4.10;;
18499;SDS011;9379;52.134;11.576;2023-03-01T11:22:28;4.60;;;4.20;;
18499;SDS011;9379;52.134;11.576;2023-03-01T11:25:00;5.40;;;4.40;;
18499;SDS011;9379;52.134;11.576;2023-03-01T11:27:29;8.98;;;4.30;;
18499;SDS011;9379;52.134;11.576;2023-03-01T11:29:59;7.95;;;5.47;;
18499;SDS011;9379;52.134;11.576;2023-03-01T11:32:33;4.18;;;3.78;;
18499;SDS011;9379;52.134;11.576;2023-03-01T11:35:07;4.60;;;4.03;;
18499;SDS011;9379;52.134;11.576;2023-03-01T11:37:41;5.50;;;4.82;;
18499;SDS011;9379;52.134;11.576;2023-03-01T11:40:17;3.75;;;3.38;;
18499;SDS011;9379;52.134;11.576;2023-03-01T11:42:53;5.18;;;3.70;;
18499;SDS011;9379;52.134;11.576;2023-03-01T11:45:28;6.82;;;4.32;;
18499;SDS011;9379;52.134;11.576;2023-03-01T11:48:09;6.82;;;4.78;;
18499;SDS011;9379;52.134;11.576;2023-03-01T11:50:53;6.28;;;4.40;;
18499;SDS011;9379;52.134;11.576;2023-03-01T11:53:28;4.28;;;3.83;;
18499;SDS011;9379;52.134;11.576;2023-03-01T11:56:08;4.05;;;3.75;;
18499;SDS011;9379;52.134;11.576;2023-03-01T11:58:46;8.13;;;4.10;;
18499;SDS011;9379;52.134;11.576;2023-03-01T12:01:40;6.20;;;4.53;;
18499;SDS011;9379;52.134;11.576;2023-03-01T12:04:26;6.68;;;4.95;;
18499;SDS011;9379;52.134;11.576;2023-03-01T12:07:11;3.88;;;3.50;;
18499;SDS011;9379;52.134;11.576;2023-03-01T12:09:48;4.07;;;3.65;;
18499;SDS011;9379;52.134;11.576;2023-03-01T12:12:31;4.38;;;3.92;;
18499;SDS011;9379;52.134;11.576;2023-03-01T12:15:28;5.47;;;5.00;;
18499;SDS011;9379;52.134;11.576;2023-03-01T12:18:14;4.20;;;3.80;;
18499;SDS011;9379;52.134;11.576;2023-03-01T12:21:03;2.60;;;2.40;;
18499;SDS011;9379;52.134;11.576;2023-03-01T12:23:47;3.35;;;3.03;;
18499;SDS011;9379;52.134;11.576;2023-03-01T12:26:26;4.13;;;3.70;;
18499;SDS011;9379;52.134;11.576;2023-03-01T12:32:00;3.50;;;3.20;;
18499;SDS011;9379;52.134;11.576;2023-03-01T12:37:42;5.88;;;4.00;;
18499;SDS011;9379;52.134;11.576;2023-03-01T12:40:33;4.05;;;3.72;;
18499;SDS011;9379;52.134;11.576;2023-03-01T12:43:17;5.18;;;4.78;;
18499;SDS011;9379;52.134;11.576;2023-03-01T12:46:04;9.80;;;3.65;;
18499;SDS011;9379;52.134;11.576;2023-03-01T12:48:43;5.85;;;4.30;;
18499;SDS011;9379;52.134;11.576;2023-03-01T12:51:18;3.45;;;3.15;;
18499;SDS011;9379;52.134;11.576;2023-03-01T12:53:49;7.50;;;5.03;;
18499;SDS011;9379;52.134;11.576;2023-03-01T12:56:19;6.75;;;4.38;;
18499;SDS011;9379;52.134;11.576;2023-03-01T12:58:51;5.45;;;4.95;;
18499;SDS011;9379;52.134;11.576;2023-03-01T13:01:30;3.45;;;3.15;;
18499;SDS011;9379;52.134;11.576;2023-03-01T13:06:53;6.80;;;3.72;;
18499;SDS011;9379;52.134;11.576;2023-03-01T13:09:28;11.35;;;5.03;;
18499;SDS011;9379;52.134;11.576;2023-03-01T13:12:00;6.15;;;3.55;;
18499;SDS011;9379;52.134;11.576;2023-03-01T13:14:34;6.82;;;4.63;;
18499;SDS011;9379;52.134;11.576;2023-03-01T13:17:04;5.00;;;3.67;;
18499;SDS011;9379;52.134;11.576;2023-03-01T13:19:56;3.88;;;3.58;;
18499;SDS011;9379;52.134;11.576;2023-03-01T13:22:28;5.47;;;4.55;;
18499;SDS011;9379;52.134;11.576;2023-03-01T13:25:01;4.60;;;3.75;;
18499;SDS011;9379;52.134;11.576;2023-03-01T13:27:29;8.75;;;4.00;;
18499;SDS011;9379;52.134;11.576;2023-03-01T13:29:57;5.18;;;3.83;;
18499;SDS011;9379;52.134;11.576;2023-03-01T13:32:30;4.28;;;3.88;;
18499;SDS011;9379;52.134;11.576;2023-03-01T13:34:58;6.30;;;3.75;;
18499;SDS011;9379;52.134;11.576;2023-03-01T13:37:33;5.88;;;4.10;;
18499;SDS011;9379;52.134;11.576;2023-03-01T13:43:29;5.57;;;4.40;;
18499;SDS011;9379;52.134;11.576;2023-03-01T13:45:57;4.78;;;4.15;;
18499;SDS011;9379;52.134;11.576;2023-03-01T13:48:27;4.25;;;3.92;;
18499;SDS011;9379;52.134;11.576;2023-03-01T13:50:57;4.97;;;3.45;;
18499;SDS011;9379;52.134;11.576;2023-03-01T13:53:27;3.78;;;3.22;;
18499;SDS011;9379;52.134;11.576;2023-03-01T13:55:58;6.35;;;4.55;;
18499;SDS011;9379;52.134;11.576;2023-03-01T13:58:29;5.22;;;3.70;;
18499;SDS011;9379;52.134;11.576;2023-03-01T14:00:59;6.10;;;4.40;;
18499;SDS011;9379;52.134;11.576;2023-03-01T14:03:28;9.50;;;5.10;;
18499;SDS011;9379;52.134;11.576;2023-03-01T14:05:58;3.75;;;3.40;;
18499;SDS011;9379;52.134;11.576;2023-03-01T14:08:27;3.70;;;3.22;;
18499;SDS011;9379;52.134;11.576;2023-03-01T14:11:07;6.00;;;4.55;;
18499;SDS011;9379;52.134;11.576;2023-03-01T14:17:18;4.57;;;3.30;;
18499;SDS011;9379;52.134;11.576;2023-03-01T14:20:14;3.58;;;3.28;;
18499;SDS011;9379;52.134;11.576;2023-03-01T14:22:44;4.32;;;3.92;;
18499;SDS011;9379;52.134;11.576;2023-03-01T14:25:17;5.07;;;3.58;;
18499;SDS011;9379;52.134;11.576;2023-03-01T14:27:50;5.05;;;4.00;;
18499;SDS011;9379;52.134;11.576;2023-03-01T14:30:21;3.05;;;2.78;;
18499;SDS011;9379;52.134;11.576;2023-03-01T14:32:53;5.50;;;3.75;;
18499;SDS011;9379;52.134;11.576;2023-03-01T14:35:23;5.75;;;4.13;;
18499;SDS011;9379;52.134;11.576;2023-03-01T14:37:51;4.72;;;4.20;;
18499;SDS011;9379;52.134;11.576;2023-03-01T14:40:23;4.75;;;4.15;;
18499;SDS011;9379;52.134;11.576;2023-03-01T14:42:52;6.07;;;4.07;;
18499;SDS011;9379;52.134;11.576;2023-03-01T14:45:25;3.15;;;2.80;;
18499;SDS011;9379;52.134;11.576;2023-03-01T14:47:53;4.53;;;4.00;;
18499;SDS011;9379;52.134;11.576;2023-03-01T14:50:24;3.45;;;2.45;;
18499;SDS011;9379;52.134;11.576;2023-03-01T14:52:54;5.85;;;3.42;;
18499;SDS011;9379;52.134;11.576;2023-03-01T14:55:24;4.07;;;3.78;;
18499;SDS011;9379;52.134;11.576;2023-03-01T14:57:53;5.80;;;4.40;;
18499;SDS011;9379;52.134;11.576;2023-03-01T15:00:21;6.15;;;4.07;;
18499;SDS011;9379;52.134;11.576;2023-03-01T15:02:50;5.80;;;4.55;;
18499;SDS011;9379;52.134;11.576;2023-03-01T15:05:21;4.05;;;3.47;;
18499;SDS011;9379;52.134;11.576;2023-03-01T15:07:54;5.18;;;3.42;;
18499;SDS011;9379;52.134;11.576;2023-03-01T15:10:23;4.40;;;3.83;;
18499;SDS011;9379;52.134;11.576;2023-03-01T15:12:51;7.20;;;4.53;;
18499;SDS011;9379;52.134;11.576;2023-03-01T15:15:19;3.50;;;2.80;;
18499;SDS011;9379;52.134;11.576;2023-03-01T15:18:05;5.18;;;3.67;;
18499;SDS011;9379;52.134;11.576;2023-03-01T15:20:43;4.82;;;3.38;;
18499;SDS011;9379;52.134;11.576;2023-03-01T15:23:18;3.78;;;3.03;;
18499;SDS011;9379;52.134;11.576;2023-03-01T15:25:48;3.78;;;2.95;;
18499;SDS011;9379;52.134;11.576;2023-03-01T15:28:22;12.95;;;4.85;;
18499;SDS011;9379;52.134;11.576;2023-03-01T15:30:55;3.33;;;2.33;;
18499;SDS011;9379;52.134;11.576;2023-03-01T15:33:31;5.78;;;3.28;;
18499;SDS011;9379;52.134;11.576;2023-03-01T15:36:01;6.28;;;4.50;;